• Join FlightAware (Why Join?)
  • Login
  • US Flag 
01:01AM EDT


 

Airport Tracker/Info


-or-


 

Live Flight TrackerFlight Track Log ✈ C-GFMT ✈ 17-Apr-2013 ✈ CYKZ - CYKZ

Flight Track Log - Related Links

Times and Time Zones

All times are in EDT time to prevent confusion due to time zone crossing. See the C-GFMT flight status page for this flight to view local times or setup timezone preferences in your user account.

Time Position Orientation Groundspeed Altitude Reporting Facility
EDT Latitude Longitude Course Direction KTS MPH feet Rate Location/Type
02:55PM 43.8333 -79.3333 193° South 110 127 1,700  Level Toronto Center
02:56PM 43.8167 -79.3167 144° Southeast 100 115 2,700 720 Climbing Toronto Center
02:57PM 43.7833 -79.2667 133° Southeast 110 127 3,200 240 Climbing Toronto Center
02:58PM 43.8622 -79.3700 220° Southwest  Level Estimated
02:58PM 43.7500 -79.2333 144° Southeast 120 138 3,200  Level Toronto Center
02:59PM 43.8622 -79.3700 193° South  Level Estimated
02:59PM 43.7167 -79.2667 216° Southwest 140 161 3,200  Level Toronto Center
03:00PM 43.8622 -79.3700 193° South  Level Estimated
03:00PM 43.6833 -79.2667 180° South 150 173 3,100  Level Toronto Center
03:01PM 43.6333 -79.2833 194° South 150 173 3,100 -120 Level Toronto Center
03:02PM 43.6000 -79.3167 216° Southwest 150 173 2,900 -60 Descending Toronto Center
03:03PM 43.5833 -79.3500 235° Southwest 150 173 3,000 60 Climbing Toronto Center
03:04PM 43.5500 -79.4000 227° Southwest 150 173 3,100 60 Climbing Toronto Center
03:05PM 43.5167 -79.4500 227° Southwest 150 173 3,200  Climbing Toronto Center
03:06PM 43.4833 -79.5000 227° Southwest 150 173 3,200  Level Toronto Center
03:07PM 43.4667 -79.5333 235° Southwest 150 173 3,200  Level Toronto Center
03:08PM 43.4333 -79.5833 227° Southwest 150 173 3,200  Level Toronto Center
03:09PM 43.4167 -79.6333 245° Southwest 150 173 3,200  Level Toronto Center
03:10PM 43.3833 -79.6833 227° Southwest 150 173 3,200  Level Toronto Center
03:11PM 43.3500 -79.7167 216° Southwest 150 173 3,200  Level Toronto Center
03:12PM 43.3167 -79.7500 216° Southwest 150 173 3,200 120 Level Toronto Center
03:13PM 43.3000 -79.8000 245° Southwest 150 173 3,500 360 Climbing Toronto Center
03:14PM 43.2667 -79.8333 216° Southwest 150 173 4,000 540 Climbing Toronto Center
03:15PM 43.2500 -79.8833 245° Southwest 160 184 4,600 540 Climbing Toronto Center
03:16PM 43.2333 -79.9333 245° Southwest 140 161 5,100 240 Climbing Toronto Center
03:17PM 43.2000 -79.9833 228° Southwest 140 161 5,100  Level Toronto Center
03:18PM 43.1833 -80.0167 236° Southwest 140 161 5,200  Climbing Toronto Center
03:19PM 43.1667 -80.0667 245° Southwest 150 173 5,200 -60 Level Toronto Center
03:20PM 43.2000 -80.0833 340° North 140 161 5,100  Descending Toronto Center
03:21PM 43.2000 -80.0500 90° East 140 161 5,200  Climbing Toronto Center
03:22PM 43.1833 -80.0000 115° Southeast 140 161 5,100  Descending Toronto Center
03:23PM 43.1500 -80.0167 200° South 140 161 5,200 60 Climbing Toronto Center
03:24PM 43.1667 -80.0833 289° West 150 173 5,300  Climbing Toronto Center
03:25PM 43.2000 -80.0667 20° North 140 161 5,300  Level Toronto Center
03:26PM 43.1833 -80.0167 115° Southeast 140 161 5,300  Level Toronto Center
03:27PM 43.1500 -80.0000 160° South 140 161 5,300  Level Toronto Center
03:28PM 43.1500 -80.0500 270° West 150 173 5,300 -120 Level Toronto Center
03:29PM 43.1833 -80.0833 324° Northwest 150 173 5,100 -360 Descending Toronto Center
03:30PM 43.2000 -80.0667 36° Northeast 140 161 4,600 -480 Descending Toronto Center
03:31PM 43.1833 -80.0167 115° Southeast 130 150 4,200 -480 Descending Toronto Center
03:32PM 43.1500 -80.0167 180° South 130 150 3,700 -420 Descending Toronto Center
03:33PM 43.1500 -80.0667 270° West 140 161 3,400 -420 Descending Toronto Center
03:34PM 43.1667 -80.1167 295° West 140 161 2,900 -240 Descending Toronto Center
03:35PM 43.1833 -80.1333 324° Northwest 120 138 3,000  Climbing Toronto Center
03:36PM 43.2000 -80.1167 36° Northeast 120 138 2,900  Descending Toronto Center
03:37PM 43.2000 -80.0667 90° East 110 127 3,100 -180 Climbing Toronto Center
03:38PM 43.2000 -80.0500 90° East 90 104 2,600 -480 Descending Toronto Center
03:39PM 43.1833 -80.0000 115° Southeast 80 92 2,200 -480 Descending Toronto Center
03:40PM 43.1833 -79.9833 90° East 80 92 1,700 -480 Descending Toronto Center
03:41PM 43.1667 -79.9500 124° Southeast 80 92 1,300  Descending Toronto Center
03:42PM 43.1667 -79.9333 90° East 80 92 1,800 840 Climbing Toronto Center
03:43PM 43.1500 -79.8833 115° Southeast 100 115 3,000 660 Climbing Toronto Center
03:44PM 43.1333 -79.8333 115° Southeast 110 127 3,200 60 Climbing Toronto Center
03:45PM 43.1167 -79.8167 144° Southeast 120 138 3,200 300 Level Toronto Center
03:46PM 43.1000 -79.8167 180° South 130 150 3,800 480 Climbing Toronto Center
03:47PM 43.0833 -79.8833 251° West 140 161 4,200 240 Climbing Toronto Center
03:48PM 43.1000 -79.9000 324° Northwest 140 161 4,300  Climbing Toronto Center
03:49PM 43.1333 -79.9500 312° West 140 161 4,300 -60 Level Toronto Center
03:50PM 43.1667 -80.0000 312° West 150 173 4,200 -120 Descending Toronto Center
03:51PM 43.2000 -80.0167 340° North 150 173 4,100 -120 Descending Toronto Center
03:52PM 43.2000 -80.0833 270° West 150 173 4,000 -360 Descending Toronto Center
03:53PM 43.2000 -80.1333 270° West 150 173 3,400 -660 Descending Toronto Center
03:54PM 43.2000 -80.1833 270° West 120 138 2,700 -360 Descending Toronto Center
03:55PM 43.2167 -80.1667 36° Northeast 90 104 2,700  Level Toronto Center
03:56PM 43.2167 -80.1333 90° East 90 104 2,800  Climbing Toronto Center
03:57PM 43.2167 -80.0833 90° East 90 104 2,800 60 Level Toronto Center
03:58PM 43.2000 -80.0667 144° Southeast 90 104 3,000 -240 Climbing Toronto Center
03:59PM 43.2000 -80.0167 90° East 90 104 2,400 -480 Descending Toronto Center
04:00PM 43.1833 -80.0000 144° Southeast 80 92 2,100 -360 Descending Toronto Center
04:01PM 43.1833 -79.9833 90° East 90 104 1,700 -480 Descending Toronto Center
04:02PM 43.1667 -79.9333 115° Southeast 90 104 1,200 180 Descending Toronto Center
04:03PM 43.1667 -79.9000 90° East 90 104 2,100 720 Climbing Toronto Center
04:04PM 43.1667 -79.8833 90° East 100 115 2,700 540 Climbing Toronto Center
04:05PM 43.2000 -79.8833 360° North 120 138 3,200 300 Climbing Toronto Center
04:06PM 43.2333 -79.8833 360° North 130 150 3,300  Climbing Toronto Center
04:07PM 43.2667 -79.9000 340° North 140 161 3,300 -120 Level Toronto Center
04:08PM 43.3000 -79.9333 324° Northwest 140 161 3,100 -120 Descending Toronto Center
04:09PM 43.3500 -79.9333 360° North 140 161 3,100  Level Toronto Center
04:10PM 43.3833 -79.9500 340° North 130 150 3,100  Level Toronto Center
04:11PM 43.4167 -79.9500 360° North 140 161 3,100  Level Toronto Center
04:12PM 43.4500 -79.9500 360° North 130 150 3,200  Climbing Toronto Center
04:13PM 43.5000 -79.9500 360° North 140 161 3,200  Level Toronto Center
04:14PM 43.5333 -79.9833 324° Northwest 140 161 3,200 -60 Level Toronto Center
04:15PM 43.5667 -79.9833 360° North 140 161 3,100  Descending Toronto Center
04:16PM 43.6167 -79.9833 360° North 140 161 3,200  Climbing Toronto Center
04:17PM 43.6500 -80.0000 340° North 140 161 3,100  Descending Toronto Center
04:18PM 43.6833 -79.9833 20° North 140 161 3,200  Climbing Toronto Center
04:19PM 43.7167 -79.9833 360° North 140 161 3,100 -60 Descending Toronto Center
04:20PM 43.7667 -79.9500 26° Northeast 140 161 3,100  Level Toronto Center
04:21PM 43.8000 -79.9500 360° North 140 161 3,200  Climbing Toronto Center
04:22PM 43.8333 -79.9333 20° North 140 161 3,200  Level Toronto Center
04:23PM 43.8500 -79.8667 71° East 130 150 3,300  Climbing Toronto Center
04:24PM 43.8500 -79.8333 90° East 130 150 3,200  Descending Toronto Center
04:25PM 43.8667 -79.7667 71° East 130 150 3,300 -60 Climbing Toronto Center
04:26PM 43.9000 -79.7500 20° North 140 161 3,100 -60 Descending Toronto Center
04:27PM 43.9333 -79.7000 47° Northeast 140 161 3,200  Climbing Toronto Center
04:28PM 43.9500 -79.6833 36° Northeast 130 150 3,100 -60 Descending Toronto Center
04:29PM 43.9833 -79.6333 47° Northeast 130 150 3,100  Level Toronto Center
04:30PM 44.0000 -79.5833 65° Northeast 130 150 3,200 -60 Climbing Toronto Center
04:31PM 44.0000 -79.5667 90° East 130 150 3,000  Descending Toronto Center
04:32PM 43.9833 -79.5167 115° Southeast 130 150 3,200 60 Climbing Toronto Center
04:33PM 43.9667 -79.4667 115° Southeast 130 150 3,200 -480 Level Toronto Center
04:34PM 43.9333 -79.4500 160° South 130 150 2,300 -600 Descending Toronto Center
04:35PM 43.9167 -79.4167 125° Southeast 110 127 2,100 -360 Descending Toronto Center
04:36PM 43.9000 -79.4000 144° Southeast 90 104 1,600 -480 Descending Toronto Center
04:37PM 43.8833 -79.3833 144° Southeast 80 92 1,200 -300 Descending Toronto Center
04:38PM 43.8667 -79.3500 125° Southeast 80 92 1,000 -240 Descending Toronto Center